createdAt,value
2023-01-05T08:44:00.508Z,14.09
2023-01-05T08:46:34.663Z,14.01
2023-01-05T08:49:09.519Z,14.04
2023-01-05T08:51:38.227Z,13.87
2023-01-05T08:54:05.870Z,13.85
2023-01-05T08:56:38.562Z,13.84
2023-01-05T08:59:07.944Z,13.94
2023-01-05T09:01:36.909Z,14.09
2023-01-05T09:04:04.529Z,13.97
2023-01-05T09:06:32.260Z,14.04
2023-01-05T09:08:59.644Z,13.95
2023-01-05T09:11:27.365Z,13.93
2023-01-05T09:14:00.551Z,13.94
2023-01-05T09:17:06.508Z,14.01
2023-01-05T09:19:22.506Z,14.14
2023-01-05T09:21:49.988Z,14.15
2023-01-05T09:24:17.348Z,14.21
2023-01-05T09:26:45.331Z,14.46
2023-01-05T09:29:13.732Z,14.13
2023-01-05T09:31:42.519Z,14.59
2023-01-05T09:34:10.720Z,14.42
2023-01-05T09:36:39.084Z,14.63
2023-01-05T09:39:07.083Z,14.56
2023-01-05T09:41:58.916Z,14.66
2023-01-05T09:44:44.046Z,14.77
2023-01-05T09:47:26.268Z,14.74
2023-01-05T09:49:54.775Z,14.69
2023-01-05T09:52:22.917Z,14.66
2023-01-05T09:54:50.651Z,14.51
2023-01-05T09:57:29.083Z,14.53
2023-01-05T10:00:05.985Z,14.39
2023-01-05T10:03:12.996Z,14.64
2023-01-05T10:05:47.387Z,14.47
2023-01-05T10:08:36.907Z,14.96
2023-01-05T10:11:42.633Z,14.92
2023-01-05T10:14:38.473Z,14.90
2023-01-05T10:21:00.843Z,14.76
2023-01-05T10:24:18.373Z,14.71
2023-01-05T10:27:54.775Z,14.92
2023-01-05T10:30:31.487Z,14.98
2023-01-05T10:33:41.607Z,15.11
2023-01-05T10:37:45.089Z,14.85
2023-01-05T10:40:57.453Z,15.08
2023-01-05T10:44:28.519Z,14.64
2023-01-05T10:46:55.963Z,14.76
2023-01-05T10:49:32.555Z,14.57
2023-01-05T10:52:01.703Z,14.57
2023-01-05T10:54:47.378Z,14.72
2023-01-05T10:57:34.859Z,14.67
2023-01-05T11:00:19.883Z,14.57
2023-01-05T11:02:59.050Z,14.78
2023-01-05T11:05:42.753Z,14.69
2023-01-05T11:08:26.860Z,15.02
2023-01-05T11:11:07.256Z,15.17
2023-01-05T11:13:48.555Z,15.11
2023-01-05T11:16:27.756Z,15.03
2023-01-05T11:19:12.937Z,15.17
2023-01-05T11:21:45.571Z,14.82
2023-01-05T11:24:24.996Z,15.08
2023-01-05T11:26:59.249Z,15.47
2023-01-05T11:29:30.891Z,14.82
2023-01-05T11:32:13.625Z,14.74
2023-01-05T11:34:52.611Z,14.90
2023-01-05T11:37:31.762Z,14.58
2023-01-05T11:40:05.191Z,14.73
2023-01-05T11:42:47.356Z,14.97
2023-01-05T11:45:31.839Z,15.13
2023-01-05T12:05:40.476Z,14.51
2023-01-05T12:08:39.183Z,14.74
2023-01-05T12:24:22.827Z,14.47
2023-01-05T12:27:30.996Z,14.42
2023-01-05T12:34:25.204Z,14.74
2023-01-05T12:37:44.332Z,14.77
2023-01-05T12:40:55.771Z,14.58
2023-01-05T12:44:17.945Z,14.76
2023-01-05T12:47:55.347Z,15.05
2023-01-05T12:51:16.651Z,14.90
2023-01-05T12:55:01.210Z,15.08
2023-01-05T13:17:53.927Z,14.18
2023-01-05T13:20:46.281Z,14.43
2023-01-05T13:24:02.618Z,14.56
2023-01-05T13:26:35.941Z,14.58
2023-01-05T13:29:05.514Z,14.62
2023-01-05T13:32:46.788Z,14.68
2023-01-05T13:36:11.289Z,14.86
2023-01-05T13:39:08.596Z,14.77
2023-01-05T13:42:35.548Z,14.38
2023-01-05T13:46:04.650Z,14.55
2023-01-05T13:49:23.440Z,15.10
2023-01-05T13:52:30.919Z,15.19
2023-01-05T13:55:03.988Z,15.29
2023-01-05T13:57:42.279Z,15.22
2023-01-05T14:00:43.077Z,15.27
2023-01-05T14:03:10.271Z,15.21
2023-01-05T14:06:08.545Z,15.17
2023-01-05T14:08:40.708Z,15.40
2023-01-05T14:11:15.704Z,15.49
2023-01-05T14:14:31.925Z,15.49
2023-01-05T14:16:59.367Z,15.30
2023-01-05T14:22:36.877Z,15.48
2023-01-05T14:26:01.805Z,15.54
2023-01-05T14:28:29.036Z,15.44
2023-01-05T14:31:13.736Z,15.39
2023-01-05T14:33:57.383Z,15.41
2023-01-05T14:37:00.270Z,15.64
2023-01-05T14:39:44.977Z,15.65
2023-01-05T14:42:12.090Z,15.50
2023-01-05T14:45:06.843Z,15.78
2023-01-05T14:47:47.128Z,15.64
2023-01-05T14:50:42.124Z,15.60
2023-01-05T14:53:20.603Z,15.73
2023-01-05T14:55:55.115Z,15.71
2023-01-05T14:58:43.430Z,15.70
2023-01-05T15:01:19.309Z,15.67
2023-01-05T15:04:11.307Z,15.30
2023-01-05T15:11:44.227Z,15.46
2023-01-05T15:14:38.434Z,15.52
